sensor_id;sensor_type;location;lat;lon;timestamp;P1;durP1;ratioP1;P2;durP2;ratioP2
76171;SDS011;64929;51.178;4.138;2023-02-28T00:01:25;5.03;;;2.67;;
76171;SDS011;64929;51.178;4.138;2023-02-28T00:03:51;5.83;;;2.50;;
76171;SDS011;64929;51.178;4.138;2023-02-28T00:06:17;2.93;;;2.30;;
76171;SDS011;64929;51.178;4.138;2023-02-28T00:08:43;5.70;;;2.37;;
76171;SDS011;64929;51.178;4.138;2023-02-28T00:11:10;3.43;;;2.13;;
76171;SDS011;64929;51.178;4.138;2023-02-28T00:13:39;4.00;;;2.33;;
76171;SDS011;64929;51.178;4.138;2023-02-28T00:16:08;5.83;;;2.67;;
76171;SDS011;64929;51.178;4.138;2023-02-28T00:18:35;3.13;;;1.83;;
76171;SDS011;64929;51.178;4.138;2023-02-28T00:21:02;4.37;;;2.37;;
76171;SDS011;64929;51.178;4.138;2023-02-28T00:23:28;4.47;;;2.77;;
76171;SDS011;64929;51.178;4.138;2023-02-28T00:25:54;4.90;;;2.40;;
76171;SDS011;64929;51.178;4.138;2023-02-28T00:28:20;3.23;;;2.40;;
76171;SDS011;64929;51.178;4.138;2023-02-28T00:30:46;3.33;;;1.97;;
76171;SDS011;64929;51.178;4.138;2023-02-28T00:33:12;5.67;;;2.37;;
76171;SDS011;64929;51.178;4.138;2023-02-28T00:35:38;5.53;;;2.40;;
76171;SDS011;64929;51.178;4.138;2023-02-28T00:38:03;4.37;;;2.33;;
76171;SDS011;64929;51.178;4.138;2023-02-28T00:40:29;3.10;;;1.80;;
76171;SDS011;64929;51.178;4.138;2023-02-28T00:42:55;5.40;;;2.10;;
76171;SDS011;64929;51.178;4.138;2023-02-28T00:45:24;3.27;;;2.23;;
76171;SDS011;64929;51.178;4.138;2023-02-28T00:47:50;3.97;;;2.30;;
76171;SDS011;64929;51.178;4.138;2023-02-28T00:50:17;5.07;;;2.37;;
76171;SDS011;64929;51.178;4.138;2023-02-28T00:52:45;3.93;;;2.17;;
76171;SDS011;64929;51.178;4.138;2023-02-28T00:55:11;6.47;;;2.97;;
76171;SDS011;64929;51.178;4.138;2023-02-28T00:57:36;4.53;;;2.43;;
76171;SDS011;64929;51.178;4.138;2023-02-28T01:00:02;4.57;;;2.20;;
76171;SDS011;64929;51.178;4.138;2023-02-28T01:02:29;5.83;;;2.57;;
76171;SDS011;64929;51.178;4.138;2023-02-28T01:04:54;3.13;;;2.27;;
76171;SDS011;64929;51.178;4.138;2023-02-28T01:07:21;3.13;;;2.20;;
76171;SDS011;64929;51.178;4.138;2023-02-28T01:09:47;3.40;;;2.23;;
76171;SDS011;64929;51.178;4.138;2023-02-28T01:12:13;6.20;;;2.70;;
76171;SDS011;64929;51.178;4.138;2023-02-28T01:14:39;3.37;;;2.30;;
76171;SDS011;64929;51.178;4.138;2023-02-28T01:17:05;3.87;;;2.40;;
76171;SDS011;64929;51.178;4.138;2023-02-28T01:19:31;4.33;;;2.37;;
76171;SDS011;64929;51.178;4.138;2023-02-28T01:21:57;6.03;;;2.80;;
76171;SDS011;64929;51.178;4.138;2023-02-28T01:24:25;3.53;;;2.57;;
76171;SDS011;64929;51.178;4.138;2023-02-28T01:26:51;5.90;;;2.43;;
76171;SDS011;64929;51.178;4.138;2023-02-28T01:29:16;3.43;;;2.23;;
76171;SDS011;64929;51.178;4.138;2023-02-28T01:31:42;3.57;;;2.30;;
76171;SDS011;64929;51.178;4.138;2023-02-28T01:34:07;3.50;;;2.60;;
76171;SDS011;64929;51.178;4.138;2023-02-28T01:36:33;6.33;;;2.40;;
76171;SDS011;64929;51.178;4.138;2023-02-28T01:38:59;3.70;;;2.47;;
76171;SDS011;64929;51.178;4.138;2023-02-28T01:41:25;4.13;;;2.73;;
76171;SDS011;64929;51.178;4.138;2023-02-28T01:43:57;4.60;;;2.80;;
76171;SDS011;64929;51.178;4.138;2023-02-28T01:46:28;6.00;;;2.80;;
76171;SDS011;64929;51.178;4.138;2023-02-28T01:49:03;12.10;;;3.17;;
76171;SDS011;64929;51.178;4.138;2023-02-28T01:51:39;3.47;;;2.57;;
76171;SDS011;64929;51.178;4.138;2023-02-28T01:54:16;6.23;;;2.27;;
76171;SDS011;64929;51.178;4.138;2023-02-28T01:56:47;6.93;;;2.87;;
76171;SDS011;64929;51.178;4.138;2023-02-28T01:59:24;4.87;;;2.70;;
76171;SDS011;64929;51.178;4.138;2023-02-28T02:01:58;4.40;;;2.60;;
76171;SDS011;64929;51.178;4.138;2023-02-28T02:04:25;4.90;;;2.60;;
76171;SDS011;64929;51.178;4.138;2023-02-28T02:07:02;10.20;;;2.90;;
76171;SDS011;64929;51.178;4.138;2023-02-28T02:09:28;5.37;;;3.00;;
76171;SDS011;64929;51.178;4.138;2023-02-28T02:11:54;4.53;;;3.07;;
76171;SDS011;64929;51.178;4.138;2023-02-28T02:14:26;6.67;;;2.70;;
76171;SDS011;64929;51.178;4.138;2023-02-28T02:38:34;5.73;;;2.73;;
76171;SDS011;64929;51.178;4.138;2023-02-28T02:41:28;4.20;;;2.30;;
76171;SDS011;64929;51.178;4.138;2023-02-28T02:46:50;4.40;;;2.53;;
76171;SDS011;64929;51.178;4.138;2023-02-28T02:49:26;4.95;;;2.30;;
76171;SDS011;64929;51.178;4.138;2023-02-28T02:51:57;7.43;;;2.97;;
76171;SDS011;64929;51.178;4.138;2023-02-28T02:56:54;6.47;;;2.83;;
76171;SDS011;64929;51.178;4.138;2023-02-28T02:59:25;5.57;;;3.00;;
76171;SDS011;64929;51.178;4.138;2023-02-28T03:01:54;4.73;;;2.40;;
76171;SDS011;64929;51.178;4.138;2023-02-28T03:04:22;3.37;;;2.63;;
76171;SDS011;64929;51.178;4.138;2023-02-28T03:06:52;3.42;;;2.72;;
76171;SDS011;64929;51.178;4.138;2023-02-28T03:09:21;5.53;;;2.73;;
76171;SDS011;64929;51.178;4.138;2023-02-28T03:11:47;6.13;;;2.60;;
76171;SDS011;64929;51.178;4.138;2023-02-28T03:16:54;4.27;;;2.80;;
76171;SDS011;64929;51.178;4.138;2023-02-28T03:25:09;4.27;;;2.80;;
76171;SDS011;64929;51.178;4.138;2023-02-28T03:27:57;6.17;;;2.70;;
76171;SDS011;64929;51.178;4.138;2023-02-28T03:30:38;4.07;;;2.23;;
76171;SDS011;64929;51.178;4.138;2023-02-28T03:33:26;3.83;;;2.40;;
76171;SDS011;64929;51.178;4.138;2023-02-28T03:36:02;2.80;;;2.27;;
76171;SDS011;64929;51.178;4.138;2023-02-28T03:41:15;3.30;;;2.20;;
76171;SDS011;64929;51.178;4.138;2023-02-28T03:43:50;4.43;;;2.50;;
76171;SDS011;64929;51.178;4.138;2023-02-28T03:46:30;4.30;;;2.70;;
76171;SDS011;64929;51.178;4.138;2023-02-28T03:49:18;4.75;;;2.20;;
76171;SDS011;64929;51.178;4.138;2023-02-28T03:51:48;5.75;;;2.80;;
76171;SDS011;64929;51.178;4.138;2023-02-28T03:54:16;5.40;;;2.93;;
76171;SDS011;64929;51.178;4.138;2023-02-28T03:56:55;4.70;;;2.20;;
76171;SDS011;64929;51.178;4.138;2023-02-28T03:59:42;4.23;;;2.63;;
76171;SDS011;64929;51.178;4.138;2023-02-28T04:02:12;3.57;;;2.43;;
76171;SDS011;64929;51.178;4.138;2023-02-28T04:04:37;6.00;;;2.77;;
76171;SDS011;64929;51.178;4.138;2023-02-28T04:07:07;6.17;;;2.10;;
76171;SDS011;64929;51.178;4.138;2023-02-28T04:11:59;5.77;;;1.93;;
76171;SDS011;64929;51.178;4.138;2023-02-28T04:14:25;5.83;;;2.67;;
76171;SDS011;64929;51.178;4.138;2023-02-28T04:16:51;3.60;;;2.80;;
76171;SDS011;64929;51.178;4.138;2023-02-28T04:19:17;4.90;;;2.30;;
76171;SDS011;64929;51.178;4.138;2023-02-28T04:21:46;3.87;;;2.43;;
76171;SDS011;64929;51.178;4.138;2023-02-28T04:24:16;5.13;;;2.77;;
76171;SDS011;64929;51.178;4.138;2023-02-28T04:26:46;3.73;;;2.47;;
76171;SDS011;64929;51.178;4.138;2023-02-28T04:29:18;5.47;;;2.77;;
76171;SDS011;64929;51.178;4.138;2023-02-28T04:31:49;5.73;;;2.70;;
76171;SDS011;64929;51.178;4.138;2023-02-28T04:34:15;6.18;;;2.65;;
76171;SDS011;64929;51.178;4.138;2023-02-28T04:36:41;3.33;;;2.03;;
76171;SDS011;64929;51.178;4.138;2023-02-28T04:39:07;2.60;;;2.40;;
76171;SDS011;64929;51.178;4.138;2023-02-28T04:41:34;3.53;;;2.67;;
76171;SDS011;64929;51.178;4.138;2023-02-28T04:44:00;3.73;;;2.60;;
76171;SDS011;64929;51.178;4.138;2023-02-28T04:46:26;6.90;;;2.60;;
76171;SDS011;64929;51.178;4.138;2023-02-28T04:48:51;4.27;;;2.80;;
76171;SDS011;64929;51.178;4.138;2023-02-28T04:51:18;8.67;;;2.27;;
76171;SDS011;64929;51.178;4.138;2023-02-28T04:53:44;8.13;;;2.90;;
76171;SDS011;64929;51.178;4.138;2023-02-28T04:56:12;4.10;;;3.17;;
76171;SDS011;64929;51.178;4.138;2023-02-28T04:58:39;5.87;;;2.67;;
76171;SDS011;64929;51.178;4.138;2023-02-28T05:01:06;3.08;;;2.13;;
76171;SDS011;64929;51.178;4.138;2023-02-28T05:03:41;4.60;;;2.53;;
76171;SDS011;64929;51.178;4.138;2023-02-28T05:06:08;4.25;;;2.45;;
76171;SDS011;64929;51.178;4.138;2023-02-28T05:08:34;5.10;;;2.30;;
76171;SDS011;64929;51.178;4.138;2023-02-28T05:11:00;3.60;;;2.43;;
76171;SDS011;64929;51.178;4.138;2023-02-28T05:13:27;3.47;;;2.57;;
76171;SDS011;64929;51.178;4.138;2023-02-28T05:15:53;5.23;;;2.50;;
76171;SDS011;64929;51.178;4.138;2023-02-28T05:18:18;4.57;;;2.67;;
76171;SDS011;64929;51.178;4.138;2023-02-28T05:20:44;4.40;;;2.83;;
76171;SDS011;64929;51.178;4.138;2023-02-28T05:23:11;4.20;;;2.37;;
76171;SDS011;64929;51.178;4.138;2023-02-28T05:25:37;4.85;;;2.60;;
76171;SDS011;64929;51.178;4.138;2023-02-28T05:28:03;4.50;;;2.50;;
76171;SDS011;64929;51.178;4.138;2023-02-28T05:30:29;4.95;;;2.42;;
76171;SDS011;64929;51.178;4.138;2023-02-28T05:32:56;4.60;;;2.40;;
76171;SDS011;64929;51.178;4.138;2023-02-28T05:35:23;2.88;;;2.38;;
76171;SDS011;64929;51.178;4.138;2023-02-28T05:37:49;3.35;;;2.35;;
76171;SDS011;64929;51.178;4.138;2023-02-28T05:40:15;7.57;;;2.85;;
76171;SDS011;64929;51.178;4.138;2023-02-28T05:42:41;4.40;;;3.03;;
76171;SDS011;64929;51.178;4.138;2023-02-28T05:45:07;4.97;;;2.60;;
76171;SDS011;64929;51.178;4.138;2023-02-28T05:47:34;4.25;;;2.55;;
76171;SDS011;64929;51.178;4.138;2023-02-28T05:50:00;6.18;;;2.50;;
76171;SDS011;64929;51.178;4.138;2023-02-28T05:52:27;4.97;;;3.10;;
76171;SDS011;64929;51.178;4.138;2023-02-28T05:54:55;4.25;;;2.50;;
76171;SDS011;64929;51.178;4.138;2023-02-28T05:57:21;5.10;;;2.25;;
76171;SDS011;64929;51.178;4.138;2023-02-28T05:59:47;4.15;;;2.70;;
76171;SDS011;64929;51.178;4.138;2023-02-28T06:02:13;4.20;;;2.47;;
76171;SDS011;64929;51.178;4.138;2023-02-28T06:04:40;4.13;;;2.40;;
76171;SDS011;64929;51.178;4.138;2023-02-28T06:07:07;3.97;;;2.45;;
76171;SDS011;64929;51.178;4.138;2023-02-28T06:09:33;5.68;;;2.92;;
76171;SDS011;64929;51.178;4.138;2023-02-28T06:12:00;3.40;;;2.47;;
76171;SDS011;64929;51.178;4.138;2023-02-28T06:14:28;3.33;;;2.28;;
76171;SDS011;64929;51.178;4.138;2023-02-28T06:16:56;3.60;;;2.55;;
76171;SDS011;64929;51.178;4.138;2023-02-28T06:19:22;8.45;;;3.05;;
76171;SDS011;64929;51.178;4.138;2023-02-28T06:21:50;4.90;;;2.60;;
76171;SDS011;64929;51.178;4.138;2023-02-28T06:24:20;5.70;;;2.83;;
76171;SDS011;64929;51.178;4.138;2023-02-28T06:26:47;4.32;;;2.38;;
76171;SDS011;64929;51.178;4.138;2023-02-28T06:29:13;7.03;;;2.78;;
76171;SDS011;64929;51.178;4.138;2023-02-28T06:31:43;4.75;;;2.60;;
76171;SDS011;64929;51.178;4.138;2023-02-28T06:34:10;4.10;;;2.60;;
76171;SDS011;64929;51.178;4.138;2023-02-28T06:36:37;6.35;;;3.13;;
76171;SDS011;64929;51.178;4.138;2023-02-28T06:39:03;4.85;;;3.08;;
76171;SDS011;64929;51.178;4.138;2023-02-28T06:41:29;6.70;;;3.08;;
76171;SDS011;64929;51.178;4.138;2023-02-28T06:43:55;8.57;;;2.47;;
76171;SDS011;64929;51.178;4.138;2023-02-28T06:46:20;6.40;;;2.58;;
76171;SDS011;64929;51.178;4.138;2023-02-28T06:48:46;4.28;;;2.30;;
76171;SDS011;64929;51.178;4.138;2023-02-28T06:51:13;4.45;;;2.58;;
76171;SDS011;64929;51.178;4.138;2023-02-28T06:53:41;6.05;;;3.13;;
76171;SDS011;64929;51.178;4.138;2023-02-28T06:56:15;5.85;;;3.03;;
76171;SDS011;64929;51.178;4.138;2023-02-28T06:58:41;4.35;;;2.70;;
76171;SDS011;64929;51.178;4.138;2023-02-28T07:01:07;4.57;;;2.47;;
76171;SDS011;64929;51.178;4.138;2023-02-28T07:03:34;4.40;;;2.80;;
76171;SDS011;64929;51.178;4.138;2023-02-28T07:06:00;3.42;;;2.20;;
76171;SDS011;64929;51.178;4.138;2023-02-28T07:08:26;4.28;;;2.30;;
76171;SDS011;64929;51.178;4.138;2023-02-28T07:10:53;6.85;;;2.20;;
76171;SDS011;64929;51.178;4.138;2023-02-28T07:13:19;7.47;;;2.88;;
76171;SDS011;64929;51.178;4.138;2023-02-28T07:15:59;3.85;;;2.70;;
76171;SDS011;64929;51.178;4.138;2023-02-28T07:18:30;4.15;;;2.80;;
76171;SDS011;64929;51.178;4.138;2023-02-28T07:20:56;2.70;;;2.00;;
76171;SDS011;64929;51.178;4.138;2023-02-28T07:23:22;8.20;;;2.67;;
76171;SDS011;64929;51.178;4.138;2023-02-28T07:25:49;3.42;;;2.58;;
76171;SDS011;64929;51.178;4.138;2023-02-28T07:28:15;4.25;;;2.72;;
76171;SDS011;64929;51.178;4.138;2023-02-28T07:30:41;4.32;;;2.42;;
76171;SDS011;64929;51.178;4.138;2023-02-28T07:33:07;4.20;;;2.90;;
76171;SDS011;64929;51.178;4.138;2023-02-28T07:35:33;3.20;;;2.30;;
76171;SDS011;64929;51.178;4.138;2023-02-28T07:37:59;5.60;;;2.65;;
76171;SDS011;64929;51.178;4.138;2023-02-28T07:40:25;6.30;;;2.80;;
76171;SDS011;64929;51.178;4.138;2023-02-28T07:42:51;4.40;;;2.65;;
76171;SDS011;64929;51.178;4.138;2023-02-28T07:45:17;5.20;;;2.92;;
76171;SDS011;64929;51.178;4.138;2023-02-28T07:47:44;4.22;;;2.65;;
76171;SDS011;64929;51.178;4.138;2023-02-28T07:50:11;5.47;;;2.72;;
76171;SDS011;64929;51.178;4.138;2023-02-28T07:52:38;4.15;;;2.95;;
76171;SDS011;64929;51.178;4.138;2023-02-28T07:55:05;4.72;;;2.83;;
76171;SDS011;64929;51.178;4.138;2023-02-28T07:57:33;5.47;;;2.45;;
76171;SDS011;64929;51.178;4.138;2023-02-28T07:59:58;6.65;;;2.95;;
76171;SDS011;64929;51.178;4.138;2023-02-28T08:02:24;6.82;;;2.80;;
76171;SDS011;64929;51.178;4.138;2023-02-28T08:04:50;5.68;;;2.70;;
76171;SDS011;64929;51.178;4.138;2023-02-28T08:07:16;5.90;;;2.92;;
76171;SDS011;64929;51.178;4.138;2023-02-28T08:09:43;5.45;;;3.15;;
76171;SDS011;64929;51.178;4.138;2023-02-28T08:12:09;6.05;;;3.00;;
76171;SDS011;64929;51.178;4.138;2023-02-28T08:14:36;6.05;;;3.15;;
76171;SDS011;64929;51.178;4.138;2023-02-28T08:17:03;5.82;;;3.58;;
76171;SDS011;64929;51.178;4.138;2023-02-28T08:19:29;4.40;;;3.03;;
76171;SDS011;64929;51.178;4.138;2023-02-28T08:21:55;5.63;;;3.40;;
76171;SDS011;64929;51.178;4.138;2023-02-28T08:24:21;3.80;;;2.70;;
76171;SDS011;64929;51.178;4.138;2023-02-28T08:26:47;7.00;;;3.90;;
76171;SDS011;64929;51.178;4.138;2023-02-28T08:29:12;6.25;;;2.85;;
76171;SDS011;64929;51.178;4.138;2023-02-28T08:31:38;4.07;;;2.70;;
76171;SDS011;64929;51.178;4.138;2023-02-28T08:34:11;3.97;;;2.72;;
76171;SDS011;64929;51.178;4.138;2023-02-28T08:36:38;4.82;;;2.67;;
76171;SDS011;64929;51.178;4.138;2023-02-28T08:39:04;6.22;;;2.22;;
76171;SDS011;64929;51.178;4.138;2023-02-28T08:41:31;4.22;;;2.05;;
76171;SDS011;64929;51.178;4.138;2023-02-28T08:43:57;4.50;;;2.47;;
76171;SDS011;64929;51.178;4.138;2023-02-28T08:46:23;2.22;;;1.85;;
76171;SDS011;64929;51.178;4.138;2023-02-28T08:48:51;3.35;;;1.90;;
76171;SDS011;64929;51.178;4.138;2023-02-28T08:51:18;3.75;;;1.98;;
76171;SDS011;64929;51.178;4.138;2023-02-28T08:53:51;9.98;;;1.90;;
76171;SDS011;64929;51.178;4.138;2023-02-28T08:56:17;2.77;;;2.10;;
76171;SDS011;64929;51.178;4.138;2023-02-28T08:58:44;3.50;;;1.63;;
76171;SDS011;64929;51.178;4.138;2023-02-28T09:01:24;1.92;;;1.63;;
76171;SDS011;64929;51.178;4.138;2023-02-28T09:03:52;2.92;;;1.83;;
76171;SDS011;64929;51.178;4.138;2023-02-28T09:06:20;2.47;;;1.70;;
76171;SDS011;64929;51.178;4.138;2023-02-28T09:08:47;2.92;;;1.42;;
76171;SDS011;64929;51.178;4.138;2023-02-28T09:11:13;4.80;;;1.95;;
76171;SDS011;64929;51.178;4.138;2023-02-28T09:13:39;2.42;;;1.60;;
76171;SDS011;64929;51.178;4.138;2023-02-28T09:16:06;1.50;;;1.30;;
76171;SDS011;64929;51.178;4.138;2023-02-28T09:18:35;3.63;;;1.77;;
76171;SDS011;64929;51.178;4.138;2023-02-28T09:21:09;1.95;;;1.52;;
76171;SDS011;64929;51.178;4.138;2023-02-28T09:23:39;1.63;;;1.30;;
76171;SDS011;64929;51.178;4.138;2023-02-28T09:26:12;2.20;;;1.35;;
76171;SDS011;64929;51.178;4.138;2023-02-28T09:28:49;2.17;;;1.13;;
76171;SDS011;64929;51.178;4.138;2023-02-28T09:31:16;3.30;;;1.92;;
76171;SDS011;64929;51.178;4.138;2023-02-28T09:36:11;3.10;;;1.15;;
76171;SDS011;64929;51.178;4.138;2023-02-28T09:38:37;1.85;;;1.30;;
76171;SDS011;64929;51.178;4.138;2023-02-28T09:41:08;1.38;;;1.10;;
76171;SDS011;64929;51.178;4.138;2023-02-28T09:43:38;1.42;;;1.10;;
76171;SDS011;64929;51.178;4.138;2023-02-28T09:48:59;3.17;;;1.05;;
76171;SDS011;64929;51.178;4.138;2023-02-28T09:51:37;1.38;;;0.88;;
76171;SDS011;64929;51.178;4.138;2023-02-28T09:54:14;1.95;;;1.00;;
76171;SDS011;64929;51.178;4.138;2023-02-28T09:56:44;1.30;;;0.95;;
76171;SDS011;64929;51.178;4.138;2023-02-28T10:05:13;1.50;;;1.23;;
76171;SDS011;64929;51.178;4.138;2023-02-28T10:07:55;3.13;;;0.95;;
76171;SDS011;64929;51.178;4.138;2023-02-28T10:13:33;1.98;;;1.30;;
76171;SDS011;64929;51.178;4.138;2023-02-28T10:18:57;1.63;;;1.40;;
76171;SDS011;64929;51.178;4.138;2023-02-28T10:21:28;1.48;;;1.02;;
76171;SDS011;64929;51.178;4.138;2023-02-28T10:24:25;2.25;;;1.33;;
76171;SDS011;64929;51.178;4.138;2023-02-28T10:27:05;3.05;;;1.55;;
76171;SDS011;64929;51.178;4.138;2023-02-28T10:29:38;1.67;;;1.33;;
76171;SDS011;64929;51.178;4.138;2023-02-28T10:32:08;1.83;;;1.50;;
76171;SDS011;64929;51.178;4.138;2023-02-28T10:34:39;2.22;;;1.38;;
76171;SDS011;64929;51.178;4.138;2023-02-28T10:37:05;2.33;;;1.40;;
76171;SDS011;64929;51.178;4.138;2023-02-28T10:39:43;4.35;;;1.40;;
76171;SDS011;64929;51.178;4.138;2023-02-28T10:47:50;2.50;;;1.50;;
76171;SDS011;64929;51.178;4.138;2023-02-28T10:53:58;1.38;;;1.13;;
76171;SDS011;64929;51.178;4.138;2023-02-28T11:03:55;2.00;;;1.50;;
76171;SDS011;64929;51.178;4.138;2023-02-28T11:06:23;1.25;;;1.15;;
76171;SDS011;64929;51.178;4.138;2023-02-28T11:08:54;4.85;;;1.20;;
76171;SDS011;64929;51.178;4.138;2023-02-28T11:11:22;3.60;;;1.30;;
76171;SDS011;64929;51.178;4.138;2023-02-28T11:13:56;1.67;;;1.10;;
76171;SDS011;64929;51.178;4.138;2023-02-28T11:16:31;2.38;;;1.20;;
76171;SDS011;64929;51.178;4.138;2023-02-28T11:18:59;1.25;;;1.10;;
76171;SDS011;64929;51.178;4.138;2023-02-28T11:21:29;5.95;;;1.30;;
76171;SDS011;64929;51.178;4.138;2023-02-28T11:26:37;0.98;;;0.93;;
76171;SDS011;64929;51.178;4.138;2023-02-28T11:29:10;1.45;;;0.90;;
76171;SDS011;64929;51.178;4.138;2023-02-28T11:31:36;1.15;;;1.05;;
76171;SDS011;64929;51.178;4.138;2023-02-28T11:34:07;2.67;;;1.10;;
76171;SDS011;64929;51.178;4.138;2023-02-28T11:36:51;2.53;;;1.15;;
76171;SDS011;64929;51.178;4.138;2023-02-28T11:39:19;1.25;;;1.08;;
76171;SDS011;64929;51.178;4.138;2023-02-28T11:52:33;0.95;;;0.93;;
76171;SDS011;64929;51.178;4.138;2023-02-28T11:58:04;2.22;;;1.45;;
76171;SDS011;64929;51.178;4.138;2023-02-28T12:11:52;1.73;;;0.98;;
76171;SDS011;64929;51.178;4.138;2023-02-28T12:22:30;2.47;;;1.17;;
76171;SDS011;64929;51.178;4.138;2023-02-28T12:25:43;1.08;;;0.90;;
76171;SDS011;64929;51.178;4.138;2023-02-28T12:28:00;1.83;;;0.95;;
76171;SDS011;64929;51.178;4.138;2023-02-28T12:30:28;1.60;;;1.17;;
76171;SDS011;64929;51.178;4.138;2023-02-28T12:35:35;1.63;;;1.00;;
76171;SDS011;64929;51.178;4.138;2023-02-28T12:38:05;1.52;;;0.90;;
76171;SDS011;64929;51.178;4.138;2023-02-28T12:40:47;1.60;;;0.82;;
76171;SDS011;64929;51.178;4.138;2023-02-28T12:43:17;2.03;;;0.90;;
76171;SDS011;64929;51.178;4.138;2023-02-28T12:48:31;3.58;;;0.98;;
76171;SDS011;64929;51.178;4.138;2023-02-28T12:51:02;0.98;;;0.90;;
76171;SDS011;64929;51.178;4.138;2023-02-28T12:58:45;0.82;;;0.80;;
76171;SDS011;64929;51.178;4.138;2023-02-28T13:09:31;1.10;;;1.00;;
76171;SDS011;64929;51.178;4.138;2023-02-28T13:11:57;2.38;;;1.10;;
76171;SDS011;64929;51.178;4.138;2023-02-28T13:19:37;0.98;;;0.80;;
76171;SDS011;64929;51.178;4.138;2023-02-28T13:22:04;1.70;;;1.35;;
76171;SDS011;64929;51.178;4.138;2023-02-28T13:24:48;3.17;;;1.30;;
76171;SDS011;64929;51.178;4.138;2023-02-28T13:27:21;1.10;;;0.95;;
76171;SDS011;64929;51.178;4.138;2023-02-28T13:29:50;0.98;;;0.88;;
76171;SDS011;64929;51.178;4.138;2023-02-28T13:32:38;1.73;;;1.23;;
76171;SDS011;64929;51.178;4.138;2023-02-28T13:39:58;1.25;;;1.15;;
76171;SDS011;64929;51.178;4.138;2023-02-28T14:08:52;1.70;;;1.50;;
76171;SDS011;64929;51.178;4.138;2023-02-28T14:11:32;2.22;;;1.15;;
76171;SDS011;64929;51.178;4.138;2023-02-28T14:14:00;1.60;;;1.33;;
76171;SDS011;64929;51.178;4.138;2023-02-28T14:16:27;1.55;;;1.08;;
76171;SDS011;64929;51.178;4.138;2023-02-28T14:19:15;3.15;;;1.13;;
76171;SDS011;64929;51.178;4.138;2023-02-28T14:30:27;1.70;;;1.40;;
76171;SDS011;64929;51.178;4.138;2023-02-28T14:38:45;1.63;;;1.38;;
76171;SDS011;64929;51.178;4.138;2023-02-28T14:41:22;2.88;;;1.80;;
76171;SDS011;64929;51.178;4.138;2023-02-28T14:44:13;1.52;;;1.15;;
76171;SDS011;64929;51.178;4.138;2023-02-28T14:46:39;1.38;;;1.23;;
76171;SDS011;64929;51.178;4.138;2023-02-28T14:49:07;1.92;;;1.30;;
76171;SDS011;64929;51.178;4.138;2023-02-28T14:54:40;2.30;;;1.50;;
76171;SDS011;64929;51.178;4.138;2023-02-28T14:57:06;1.67;;;1.50;;
76171;SDS011;64929;51.178;4.138;2023-02-28T15:00:15;1.83;;;1.40;;
76171;SDS011;64929;51.178;4.138;2023-02-28T15:02:46;2.00;;;1.20;;
76171;SDS011;64929;51.178;4.138;2023-02-28T15:07:37;2.88;;;1.60;;
76171;SDS011;64929;51.178;4.138;2023-02-28T15:10:23;2.28;;;1.60;;
76171;SDS011;64929;51.178;4.138;2023-02-28T15:15:21;3.55;;;1.88;;
76171;SDS011;64929;51.178;4.138;2023-02-28T15:17:52;2.22;;;1.60;;
76171;SDS011;64929;51.178;4.138;2023-02-28T15:20:25;1.50;;;1.40;;
76171;SDS011;64929;51.178;4.138;2023-02-28T15:22:52;2.78;;;1.42;;
76171;SDS011;64929;51.178;4.138;2023-02-28T15:25:20;4.18;;;1.80;;
76171;SDS011;64929;51.178;4.138;2023-02-28T15:27:48;1.75;;;1.50;;
76171;SDS011;64929;51.178;4.138;2023-02-28T15:30:17;1.93;;;1.30;;
76171;SDS011;64929;51.178;4.138;2023-02-28T15:35:29;4.90;;;1.63;;
76171;SDS011;64929;51.178;4.138;2023-02-28T15:38:00;2.88;;;1.65;;
76171;SDS011;64929;51.178;4.138;2023-02-28T15:45:39;1.73;;;1.45;;
76171;SDS011;64929;51.178;4.138;2023-02-28T15:48:13;2.63;;;1.60;;
76171;SDS011;64929;51.178;4.138;2023-02-28T15:50:40;1.98;;;1.67;;
76171;SDS011;64929;51.178;4.138;2023-02-28T15:53:10;2.13;;;1.42;;
76171;SDS011;64929;51.178;4.138;2023-02-28T15:55:38;2.00;;;1.20;;
76171;SDS011;64929;51.178;4.138;2023-02-28T15:58:04;2.08;;;1.48;;
76171;SDS011;64929;51.178;4.138;2023-02-28T16:00:31;1.92;;;1.58;;
76171;SDS011;64929;51.178;4.138;2023-02-28T16:03:00;2.15;;;1.73;;
76171;SDS011;64929;51.178;4.138;2023-02-28T16:05:27;2.05;;;1.58;;
76171;SDS011;64929;51.178;4.138;2023-02-28T16:07:58;2.72;;;1.90;;
76171;SDS011;64929;51.178;4.138;2023-02-28T16:10:37;3.22;;;1.60;;
76171;SDS011;64929;51.178;4.138;2023-02-28T16:13:02;3.17;;;1.83;;
76171;SDS011;64929;51.178;4.138;2023-02-28T16:15:37;2.15;;;1.70;;
76171;SDS011;64929;51.178;4.138;2023-02-28T16:18:07;3.05;;;1.60;;
76171;SDS011;64929;51.178;4.138;2023-02-28T16:20:37;1.60;;;1.38;;
76171;SDS011;64929;51.178;4.138;2023-02-28T16:23:04;3.05;;;2.22;;
76171;SDS011;64929;51.178;4.138;2023-02-28T16:25:34;3.13;;;2.10;;
76171;SDS011;64929;51.178;4.138;2023-02-28T16:28:02;2.03;;;1.55;;
76171;SDS011;64929;51.178;4.138;2023-02-28T16:30:29;1.98;;;1.77;;
76171;SDS011;64929;51.178;4.138;2023-02-28T16:32:56;1.88;;;1.48;;
76171;SDS011;64929;51.178;4.138;2023-02-28T16:35:22;2.03;;;1.73;;
76171;SDS011;64929;51.178;4.138;2023-02-28T16:37:52;6.38;;;1.65;;
76171;SDS011;64929;51.178;4.138;2023-02-28T16:40:19;3.85;;;1.65;;
76171;SDS011;64929;51.178;4.138;2023-02-28T16:42:48;2.28;;;1.70;;
76171;SDS011;64929;51.178;4.138;2023-02-28T16:45:26;3.13;;;1.75;;
76171;SDS011;64929;51.178;4.138;2023-02-28T16:47:53;1.98;;;1.73;;
76171;SDS011;64929;51.178;4.138;2023-02-28T16:50:23;1.85;;;1.50;;
76171;SDS011;64929;51.178;4.138;2023-02-28T16:52:51;3.13;;;1.75;;
76171;SDS011;64929;51.178;4.138;2023-02-28T16:55:17;2.03;;;1.70;;
76171;SDS011;64929;51.178;4.138;2023-02-28T16:57:43;5.45;;;2.13;;
76171;SDS011;64929;51.178;4.138;2023-02-28T17:00:12;3.97;;;1.50;;
76171;SDS011;64929;51.178;4.138;2023-02-28T17:02:39;1.40;;;1.30;;
76171;SDS011;64929;51.178;4.138;2023-02-28T17:05:05;3.33;;;1.83;;
76171;SDS011;64929;51.178;4.138;2023-02-28T17:07:31;1.90;;;1.55;;
76171;SDS011;64929;51.178;4.138;2023-02-28T17:09:57;2.97;;;1.83;;
76171;SDS011;64929;51.178;4.138;2023-02-28T17:12:25;3.53;;;1.98;;
76171;SDS011;64929;51.178;4.138;2023-02-28T17:14:51;5.88;;;1.45;;
76171;SDS011;64929;51.178;4.138;2023-02-28T17:17:17;3.85;;;1.92;;
76171;SDS011;64929;51.178;4.138;2023-02-28T17:19:46;1.58;;;1.48;;
76171;SDS011;64929;51.178;4.138;2023-02-28T17:22:12;2.72;;;1.73;;
76171;SDS011;64929;51.178;4.138;2023-02-28T17:24:38;2.45;;;1.77;;
76171;SDS011;64929;51.178;4.138;2023-02-28T17:27:03;3.80;;;1.60;;
76171;SDS011;64929;51.178;4.138;2023-02-28T17:29:29;2.78;;;2.08;;
76171;SDS011;64929;51.178;4.138;2023-02-28T17:31:55;2.95;;;1.85;;
76171;SDS011;64929;51.178;4.138;2023-02-28T17:34:21;3.63;;;1.65;;
76171;SDS011;64929;51.178;4.138;2023-02-28T17:36:48;2.55;;;1.90;;
76171;SDS011;64929;51.178;4.138;2023-02-28T17:39:15;2.40;;;1.92;;
76171;SDS011;64929;51.178;4.138;2023-02-28T17:41:50;2.63;;;2.10;;
76171;SDS011;64929;51.178;4.138;2023-02-28T17:44:16;3.05;;;2.50;;
76171;SDS011;64929;51.178;4.138;2023-02-28T17:46:42;3.67;;;2.35;;
76171;SDS011;64929;51.178;4.138;2023-02-28T17:49:09;3.08;;;2.38;;
76171;SDS011;64929;51.178;4.138;2023-02-28T17:51:35;7.93;;;2.03;;
76171;SDS011;64929;51.178;4.138;2023-02-28T17:54:01;4.72;;;2.30;;
76171;SDS011;64929;51.178;4.138;2023-02-28T17:56:27;4.15;;;1.98;;
76171;SDS011;64929;51.178;4.138;2023-02-28T17:58:53;2.88;;;2.25;;
76171;SDS011;64929;51.178;4.138;2023-02-28T18:01:20;3.38;;;2.50;;
76171;SDS011;64929;51.178;4.138;2023-02-28T18:03:47;4.32;;;2.42;;
76171;SDS011;64929;51.178;4.138;2023-02-28T18:06:35;4.03;;;2.50;;
76171;SDS011;64929;51.178;4.138;2023-02-28T18:09:18;4.45;;;2.80;;
76171;SDS011;64929;51.178;4.138;2023-02-28T18:11:49;5.00;;;2.63;;
76171;SDS011;64929;51.178;4.138;2023-02-28T18:14:16;3.65;;;2.38;;
76171;SDS011;64929;51.178;4.138;2023-02-28T18:16:44;6.70;;;2.80;;